www.cux-wetter.de
Wetterdaten: Donnerstag, 22.01.2009
Datum Zeit Temp. A. Feuchte A. Luftdruck Regen Wind Richtung Richtung Sonnenschein Solar Taupunkt Windchill Windben
22.01.2009 00:05 2,5 C 90 % 1005,5 hPa 0,0 l/m 10,1 km/h (2 Bft) SW 220 0 min 0 W/m 1,0 C -0,8 C 10,1 km/h (2 Bft)
22.01.2009 00:09 2,5 C 90 % 1005,5 hPa 0,0 l/m 10,6 km/h (2 Bft) SW 215 0 min 0 W/m 1,0 C -1,1 C 10,6 km/h (2 Bft)
22.01.2009 00:14 2,5 C 91 % 1005,5 hPa 0,0 l/m 10,0 km/h (2 Bft) SW 215 0 min 0 W/m 1,2 C -0,7 C 10,0 km/h (2 Bft)
22.01.2009 00:19 2,5 C 91 % 1005,5 hPa 0,0 l/m 11,8 km/h (2 Bft) SW 215 0 min 0 W/m 1,2 C -2,0 C 11,8 km/h (2 Bft)
22.01.2009 00:24 2,5 C 91 % 1005,5 hPa 0,0 l/m 13,7 km/h (3 Bft) S-SW 205 0 min 0 W/m 1,2 C -3,2 C 13,7 km/h (3 Bft)
22.01.2009 00:30 2,5 C 91 % 1005,5 hPa 0,0 l/m 12,3 km/h (2 Bft) SW 225 0 min 0 W/m 1,2 C -2,3 C 12,3 km/h (2 Bft)
22.01.2009 00:35 2,5 C 91 % 1005,5 hPa 0,0 l/m 10,1 km/h (2 Bft) SW 215 0 min 0 W/m 1,2 C -0,8 C 10,1 km/h (2 Bft)
22.01.2009 00:40 2,5 C 91 % 1005,5 hPa 0,0 l/m 13,8 km/h (3 Bft) S-SW 205 0 min 0 W/m 1,2 C -3,3 C 13,8 km/h (3 Bft)
22.01.2009 00:44 2,6 C 91 % 1005,5 hPa 0,0 l/m 13,6 km/h (3 Bft) SW 215 0 min 0 W/m 1,3 C -3,0 C 13,6 km/h (3 Bft)
22.01.2009 00:49 2,6 C 91 % 1005,5 hPa 0,0 l/m 10,5 km/h (2 Bft) S-SW 210 0 min 0 W/m 1,3 C -1,0 C 10,5 km/h (2 Bft)
22.01.2009 00:54 2,6 C 91 % 1005,5 hPa 0,0 l/m 13,4 km/h (3 Bft) SW 225 0 min 0 W/m 1,3 C -2,9 C 13,4 km/h (3 Bft)
22.01.2009 00:59 2,5 C 91 % 1005,5 hPa 0,0 l/m 15,0 km/h (3 Bft) SW 225 0 min 0 W/m 1,2 C -4,0 C 15,0 km/h (3 Bft)
22.01.2009 01:04 2,4 C 91 % 1005,5 hPa 0,0 l/m 10,1 km/h (2 Bft) SW 230 0 min 0 W/m 1,1 C -0,9 C 10,1 km/h (2 Bft)
22.01.2009 01:10 2,4 C 91 % 1005,5 hPa 0,0 l/m 13,0 km/h (3 Bft) W-SW 240 0 min 0 W/m 1,1 C -2,9 C 13,0 km/h (3 Bft)
22.01.2009 01:14 2,4 C 91 % 1005,5 hPa 0,0 l/m 8,2 km/h (2 Bft) W-SW 245 0 min 0 W/m 1,1 C 0,7 C 8,2 km/h (2 Bft)
22.01.2009 01:19 2,3 C 91 % 1005,5 hPa 0,0 l/m 14,2 km/h (3 Bft) SW 220 0 min 0 W/m 1,0 C -3,7 C 14,2 km/h (3 Bft)
22.01.2009 01:24 2,3 C 91 % 1005,5 hPa 0,0 l/m 15,1 km/h (3 Bft) SW 230 0 min 0 W/m 1,0 C -4,3 C 15,1 km/h (3 Bft)
22.01.2009 01:29 2,2 C 91 % 1005,5 hPa 0,0 l/m 16,6 km/h (3 Bft) SW 225 0 min 0 W/m 0,9 C -5,2 C 16,6 km/h (3 Bft)
22.01.2009 01:34 2,2 C 91 % 1005,5 hPa 0,0 l/m 9,6 km/h (2 Bft) SW 235 0 min 0 W/m 0,9 C -0,7 C 9,6 km/h (2 Bft)
22.01.2009 01:39 2,2 C 91 % 1005,5 hPa 0,0 l/m 11,4 km/h (2 Bft) SW 230 0 min 0 W/m 0,9 C -2,1 C 11,4 km/h (2 Bft)
22.01.2009 01:45 2,2 C 91 % 1005,5 hPa 0,0 l/m 10,8 km/h (2 Bft) W-SW 240 0 min 0 W/m 0,9 C -1,6 C 10,8 km/h (2 Bft)
22.01.2009 01:50 2,2 C 91 % 1005,5 hPa 0,0 l/m 12,8 km/h (3 Bft) W-SW 240 0 min 0 W/m 0,9 C -3,0 C 12,8 km/h (3 Bft)
22.01.2009 01:55 2,1 C 91 % 1005,5 hPa 0,0 l/m 12,3 km/h (2 Bft) SW 235 0 min 0 W/m 0,8 C -2,8 C 12,3 km/h (2 Bft)
22.01.2009 01:59 2,1 C 91 % 1005,5 hPa 0,0 l/m 12,0 km/h (2 Bft) SW 230 0 min 0 W/m 0,8 C -2,6 C 12,0 km/h (2 Bft)
22.01.2009 02:04 2,1 C 91 % 1005,5 hPa 0,0 l/m 10,2 km/h (2 Bft) SW 235 0 min 0 W/m 0,8 C -1,3 C 10,2 km/h (2 Bft)
22.01.2009 02:10 2,2 C 91 % 1004,5 hPa 0,0 l/m 10,3 km/h (2 Bft) SW 230 0 min 0 W/m 0,9 C -1,3 C 10,3 km/h (2 Bft)
22.01.2009 02:15 2,2 C 91 % 1004,5 hPa 0,0 l/m 9,0 km/h (2 Bft) SW 225 0 min 0 W/m 0,9 C -0,2 C 9,0 km/h (2 Bft)
22.01.2009 02:20 2,2 C 91 % 1004,5 hPa 0,0 l/m 8,6 km/h (2 Bft) SW 215 0 min 0 W/m 0,9 C 0,1 C 8,6 km/h (2 Bft)
22.01.2009 02:24 2,2 C 91 % 1004,5 hPa 0,0 l/m 11,9 km/h (2 Bft) SW 215 0 min 0 W/m 0,9 C -2,4 C 11,9 km/h (2 Bft)
22.01.2009 02:29 2,2 C 91 % 1004,5 hPa 0,0 l/m 8,3 km/h (2 Bft) SW 215 0 min 0 W/m 0,9 C 0,4 C 8,3 km/h (2 Bft)
22.01.2009 02:34 2,2 C 91 % 1004,5 hPa 0,0 l/m 8,3 km/h (2 Bft) SW 220 0 min 0 W/m 0,9 C 0,4 C 8,3 km/h (2 Bft)
22.01.2009 02:39 2,3 C 91 % 1004,5 hPa 0,0 l/m 10,4 km/h (2 Bft) SW 235 0 min 0 W/m 1,0 C -1,2 C 10,4 km/h (2 Bft)
22.01.2009 02:44 2,3 C 91 % 1004,5 hPa 0,0 l/m 9,2 km/h (2 Bft) SW 220 0 min 0 W/m 1,0 C -0,3 C 9,2 km/h (2 Bft)
22.01.2009 02:49 2,3 C 91 % 1004,5 hPa 0,0 l/m 12,8 km/h (3 Bft) SW 225 0 min 0 W/m 1,0 C -2,9 C 12,8 km/h (3 Bft)
22.01.2009 02:55 2,3 C 90 % 1004,5 hPa 0,0 l/m 11,1 km/h (2 Bft) SW 215 0 min 0 W/m 0,8 C -1,7 C 11,1 km/h (2 Bft)
22.01.2009 03:00 2,3 C 90 % 1004,5 hPa 0,0 l/m 10,3 km/h (2 Bft) SW 225 0 min 0 W/m 0,8 C -1,1 C 10,3 km/h (2 Bft)
22.01.2009 03:04 2,3 C 90 % 1004,5 hPa 0,0 l/m 11,6 km/h (2 Bft) SW 220 0 min 0 W/m 0,8 C -2,1 C 11,6 km/h (2 Bft)
22.01.2009 03:09 2,3 C 90 % 1004,5 hPa 0,0 l/m 14,5 km/h (3 Bft) SW 220 0 min 0 W/m 0,8 C -3,9 C 14,5 km/h (3 Bft)
22.01.2009 03:14 2,3 C 90 % 1004,5 hPa 0,0 l/m 17,0 km/h (3 Bft) S-SW 205 0 min 0 W/m 0,8 C -5,3 C 17,0 km/h (3 Bft)
22.01.2009 03:20 2,3 C 90 % 1004,5 hPa 0,0 l/m 17,0 km/h (3 Bft) S-SW 205 0 min 0 W/m 0,8 C -5,3 C 17,0 km/h (3 Bft)
22.01.2009 03:25 2,3 C 90 % 1004,5 hPa 0,0 l/m 12,1 km/h (2 Bft) S-SW 205 0 min 0 W/m 0,8 C -2,4 C 12,1 km/h (2 Bft)
22.01.2009 03:30 2,3 C 90 % 1004,5 hPa 0,0 l/m 9,6 km/h (2 Bft) S 185 0 min 0 W/m 0,8 C -0,6 C 9,6 km/h (2 Bft)
22.01.2009 03:34 2,3 C 90 % 1004,5 hPa 0,0 l/m 9,6 km/h (2 Bft) S-SW 200 0 min 0 W/m 0,8 C -0,6 C 9,6 km/h (2 Bft)
22.01.2009 03:39 2,3 C 89 % 1004,5 hPa 0,0 l/m 8,1 km/h (2 Bft) S-SO 160 0 min 0 W/m 0,7 C 0,7 C 8,1 km/h (2 Bft)
22.01.2009 03:44 2,3 C 90 % 1004,5 hPa 0,0 l/m 6,8 km/h (2 Bft) S-SO 150 0 min 0 W/m 0,8 C 1,9 C 6,8 km/h (2 Bft)
22.01.2009 03:49 2,2 C 89 % 1004,5 hPa 0,0 l/m 4,5 km/h (1 Bft) S-SO 150 0 min 0 W/m 0,6 C 2,2 C 4,5 km/h (1 Bft)
22.01.2009 03:54 2,2 C 89 % 1004,5 hPa 0,0 l/m 8,3 km/h (2 Bft) S-SO 160 0 min 0 W/m 0,6 C 0,4 C 8,3 km/h (2 Bft)
22.01.2009 03:59 2,1 C 89 % 1004,5 hPa 0,0 l/m 8,2 km/h (2 Bft) S 170 0 min 0 W/m 0,5 C 0,4 C 8,2 km/h (2 Bft)
22.01.2009 04:05 2,1 C 89 % 1004,5 hPa 0,0 l/m 5,9 km/h (2 Bft) S-SO 160 0 min 0 W/m 0,5 C 2,1 C 5,9 km/h (2 Bft)
22.01.2009 04:09 2,1 C 89 % 1004,5 hPa 0,0 l/m 5,0 km/h (1 Bft) S 180 0 min 0 W/m 0,5 C 2,1 C 5,0 km/h (1 Bft)
22.01.2009 04:14 2,0 C 89 % 1004,5 hPa 0,0 l/m 6,1 km/h (2 Bft) S-SO 165 0 min 0 W/m 0,4 C 2,0 C 6,1 km/h (2 Bft)
22.01.2009 04:19 2,0 C 89 % 1003,5 hPa 0,0 l/m 7,9 km/h (2 Bft) S 175 0 min 0 W/m 0,4 C 0,5 C 7,9 km/h (2 Bft)
22.01.2009 04:24 2,0 C 89 % 1003,5 hPa 0,0 l/m 9,4 km/h (2 Bft) S 175 0 min 0 W/m 0,4 C -0,8 C 9,4 km/h (2 Bft)
22.01.2009 04:30 1,9 C 89 % 1003,5 hPa 0,0 l/m 8,7 km/h (2 Bft) S 180 0 min 0 W/m 0,3 C -0,3 C 8,7 km/h (2 Bft)
22.01.2009 04:35 1,9 C 89 % 1003,5 hPa 0,0 l/m 9,3 km/h (2 Bft) S 170 0 min 0 W/m 0,3 C -0,8 C 9,3 km/h (2 Bft)
22.01.2009 04:40 1,9 C 89 % 1003,5 hPa 0,0 l/m 8,9 km/h (2 Bft) S 180 0 min 0 W/m 0,3 C -0,5 C 8,9 km/h (2 Bft)
22.01.2009 04:44 1,9 C 89 % 1003,5 hPa 0,0 l/m 8,5 km/h (2 Bft) S 170 0 min 0 W/m 0,3 C -0,1 C 8,5 km/h (2 Bft)
22.01.2009 04:49 2,4 C 91 % 1003,5 hPa 0,0 l/m 10,6 km/h (2 Bft) S 170 0 min 0 W/m 1,1 C -1,3 C 10,6 km/h (2 Bft)
22.01.2009 04:54 3,1 C 91 % 1003,5 hPa 0,0 l/m 13,1 km/h (3 Bft) S 170 0 min 0 W/m 1,8 C -2,1 C 13,1 km/h (3 Bft)
22.01.2009 04:59 3,1 C 91 % 1003,5 hPa 0,0 l/m 11,3 km/h (2 Bft) S 170 0 min 0 W/m 1,8 C -1,0 C 11,3 km/h (2 Bft)
22.01.2009 05:04 3,5 C 88 % 1003,5 hPa 0,0 l/m 11,3 km/h (2 Bft) S 170 0 min 0 W/m 1,7 C -0,5 C 11,3 km/h (2 Bft)
22.01.2009 05:09 3,8 C 87 % 1003,5 hPa 0,0 l/m 10,3 km/h (2 Bft) S 175 0 min 0 W/m 1,8 C 0,5 C 10,3 km/h (2 Bft)
22.01.2009 05:14 3,9 C 86 % 1003,5 hPa 0,0 l/m 11,8 km/h (2 Bft) S 170 0 min 0 W/m 1,8 C -0,4 C 11,8 km/h (2 Bft)
22.01.2009 05:19 4,0 C 86 % 1003,5 hPa 0,0 l/m 12,0 km/h (2 Bft) S 170 0 min 0 W/m 1,9 C -0,4 C 12,0 km/h (2 Bft)
22.01.2009 05:24 3,8 C 83 % 1003,5 hPa 0,0 l/m 12,5 km/h (2 Bft) S 180 0 min 0 W/m 1,2 C -0,9 C 12,5 km/h (2 Bft)
22.01.2009 05:29 3,5 C 83 % 1003,5 hPa 0,0 l/m 17,6 km/h (3 Bft) S-SO 160 0 min 0 W/m 0,9 C -4,0 C 17,6 km/h (3 Bft)
22.01.2009 05:34 3,6 C 84 % 1003,5 hPa 0,0 l/m 17,6 km/h (3 Bft) S-SO 160 0 min 0 W/m 1,2 C -3,9 C 17,6 km/h (3 Bft)
22.01.2009 05:40 3,7 C 83 % 1003,5 hPa 0,0 l/m 11,3 km/h (2 Bft) S 175 0 min 0 W/m 1,1 C -0,3 C 11,3 km/h (2 Bft)
22.01.2009 05:45 3,5 C 83 % 1003,5 hPa 0,0 l/m 11,6 km/h (2 Bft) S 170 0 min 0 W/m 0,9 C -0,7 C 11,6 km/h (2 Bft)
22.01.2009 05:50 3,4 C 82 % 1003,5 hPa 0,0 l/m 12,1 km/h (2 Bft) S-SO 165 0 min 0 W/m 0,6 C -1,2 C 12,1 km/h (2 Bft)
22.01.2009 05:54 3,2 C 82 % 1003,5 hPa 0,0 l/m 12,0 km/h (2 Bft) S 175 0 min 0 W/m 0,4 C -1,3 C 12,0 km/h (2 Bft)
22.01.2009 05:59 3,0 C 82 % 1002,5 hPa 0,0 l/m 10,4 km/h (2 Bft) S 170 0 min 0 W/m 0,2 C -0,4 C 10,4 km/h (2 Bft)
22.01.2009 06:04 2,8 C 82 % 1002,5 hPa 0,0 l/m 11,5 km/h (2 Bft) S 180 0 min 0 W/m 0,0 C -1,4 C 11,5 km/h (2 Bft)
22.01.2009 06:10 2,6 C 83 % 1002,5 hPa 0,0 l/m 13,8 km/h (3 Bft) S 170 0 min 0 W/m 0,0 C -3,1 C 13,8 km/h (3 Bft)
22.01.2009 06:14 2,6 C 83 % 1002,5 hPa 0,0 l/m 12,0 km/h (2 Bft) S 170 0 min 0 W/m 0,0 C -2,0 C 12,0 km/h (2 Bft)
22.01.2009 06:19 2,7 C 84 % 1002,5 hPa 0,0 l/m 12,6 km/h (3 Bft) S 170 0 min 0 W/m 0,3 C -2,3 C 12,6 km/h (3 Bft)
22.01.2009 06:24 2,5 C 83 % 1002,5 hPa 0,0 l/m 15,8 km/h (3 Bft) S-SO 165 0 min 0 W/m -0,1 C -4,4 C 15,8 km/h (3 Bft)
22.01.2009 06:29 2,2 C 83 % 1002,5 hPa 0,0 l/m 9,4 km/h (2 Bft) S-SO 165 0 min 0 W/m -0,4 C -0,5 C 9,4 km/h (2 Bft)
22.01.2009 06:34 2,0 C 84 % 1002,5 hPa 0,0 l/m 16,0 km/h (3 Bft) S 175 0 min 0 W/m -0,4 C -5,1 C 16,0 km/h (3 Bft)
22.01.2009 06:39 1,9 C 84 % 1002,5 hPa 0,0 l/m 11,5 km/h (2 Bft) S 175 0 min 0 W/m -0,5 C -2,5 C 11,5 km/h (2 Bft)
22.01.2009 06:45 1,8 C 85 % 1002,5 hPa 0,0 l/m 14,0 km/h (3 Bft) S 180 0 min 0 W/m -0,4 C -4,2 C 14,0 km/h (3 Bft)
22.01.2009 06:50 1,8 C 84 % 1002,5 hPa 0,0 l/m 12,5 km/h (2 Bft) S 175 0 min 0 W/m -0,6 C -3,3 C 12,5 km/h (2 Bft)
22.01.2009 06:55 1,6 C 84 % 1002,5 hPa 0,0 l/m 14,8 km/h (3 Bft) S 170 0 min 0 W/m -0,8 C -4,9 C 14,8 km/h (3 Bft)
22.01.2009 06:59 1,4 C 85 % 1002,5 hPa 0,0 l/m 15,5 km/h (3 Bft) S 170 0 min 0 W/m -0,8 C -5,6 C 15,5 km/h (3 Bft)
22.01.2009 07:04 1,2 C 85 % 1002,5 hPa 0,0 l/m 12,8 km/h (3 Bft) S 170 0 min 0 W/m -1,0 C -4,2 C 12,8 km/h (3 Bft)
22.01.2009 07:10 1,4 C 86 % 1002,5 hPa 0,0 l/m 12,8 km/h (3 Bft) S 170 0 min 0 W/m -0,7 C -3,9 C 12,8 km/h (3 Bft)
22.01.2009 07:15 1,5 C 86 % 1002,5 hPa 0,0 l/m 12,7 km/h (3 Bft) S 170 0 min 0 W/m -0,6 C -3,7 C 12,7 km/h (3 Bft)
22.01.2009 07:20 1,6 C 85 % 1002,5 hPa 0,0 l/m 7,9 km/h (2 Bft) S 170 0 min 0 W/m -0,6 C 0,1 C 7,9 km/h (2 Bft)
22.01.2009 07:24 1,6 C 85 % 1002,5 hPa 0,0 l/m 14,0 km/h (3 Bft) S 170 0 min 0 W/m -0,6 C -4,5 C 14,0 km/h (3 Bft)
22.01.2009 07:29 1,2 C 85 % 1002,5 hPa 0,0 l/m 13,1 km/h (3 Bft) S 170 0 min 0 W/m -1,0 C -4,4 C 13,1 km/h (3 Bft)
22.01.2009 07:34 1,2 C 86 % 1002,5 hPa 0,0 l/m 14,8 km/h (3 Bft) S 175 0 min 0 W/m -0,9 C -5,4 C 14,8 km/h (3 Bft)
22.01.2009 07:39 1,2 C 86 % 1002,5 hPa 0,0 l/m 11,8 km/h (2 Bft) S-SO 160 0 min 0 W/m -0,9 C -3,5 C 11,8 km/h (2 Bft)
22.01.2009 07:44 1,2 C 86 % 1002,5 hPa 0,0 l/m 13,0 km/h (3 Bft) S 180 0 min 0 W/m -0,9 C -4,3 C 13,0 km/h (3 Bft)
22.01.2009 07:49 1,1 C 86 % 1002,5 hPa 0,0 l/m 11,3 km/h (2 Bft) S-SO 165 0 min 0 W/m -1,0 C -3,2 C 11,3 km/h (2 Bft)
22.01.2009 07:55 1,1 C 86 % 1001,5 hPa 0,0 l/m 14,0 km/h (3 Bft) S 175 0 min 0 W/m -1,0 C -5,0 C 14,0 km/h (3 Bft)
22.01.2009 08:00 1,0 C 86 % 1001,5 hPa 0,0 l/m 15,0 km/h (3 Bft) S-SO 165 0 min 0 W/m -1,1 C -5,8 C 15,0 km/h (3 Bft)
22.01.2009 08:04 0,9 C 86 % 1001,5 hPa 0,0 l/m 12,3 km/h (2 Bft) S 170 0 min 0 W/m -1,2 C -4,2 C 12,3 km/h (2 Bft)
22.01.2009 08:09 0,9 C 86 % 1001,5 hPa 0,0 l/m 14,0 km/h (3 Bft) S 175 0 min 0 W/m -1,2 C -5,3 C 14,0 km/h (3 Bft)
22.01.2009 08:15 0,5 C 86 % 1001,5 hPa 0,0 l/m 19,5 km/h (3 Bft) S 170 0 min 0 W/m -1,6 C -8,8 C 19,5 km/h (3 Bft)
22.01.2009 08:20 -0,2 C 86 % 1001,5 hPa 0,0 l/m 14,3 km/h (3 Bft) S 170 0 min 0 W/m -2,3 C -6,8 C 14,3 km/h (3 Bft)
22.01.2009 08:25 -0,4 C 88 % 1001,5 hPa 0,0 l/m 14,0 km/h (3 Bft) S 175 0 min 0 W/m -2,1 C -6,8 C 14,0 km/h (3 Bft)
22.01.2009 08:29 -0,6 C 89 % 1001,5 hPa 0,0 l/m 17,0 km/h (3 Bft) S 170 0 min 0 W/m -2,2 C -8,9 C 17,0 km/h (3 Bft)
22.01.2009 08:34 -0,6 C 90 % 1001,5 hPa 0,0 l/m 15,4 km/h (3 Bft) S 175 0 min 0 W/m -2,0 C -8,0 C 15,4 km/h (3 Bft)
22.01.2009 08:39 -0,7 C 90 % 1001,5 hPa 0,0 l/m 15,4 km/h (3 Bft) S 175 0 min 0 W/m -2,1 C -8,1 C 15,4 km/h (3 Bft)
22.01.2009 08:44 -0,8 C 90 % 1001,5 hPa 0,0 l/m 17,3 km/h (3 Bft) S 170 0 min 0 W/m -2,2 C -9,3 C 17,3 km/h (3 Bft)
22.01.2009 08:49 -0,7 C 91 % 1001,5 hPa 0,0 l/m 17,1 km/h (3 Bft) S 175 0 min 0 W/m -2,0 C -9,1 C 17,1 km/h (3 Bft)
22.01.2009 08:55 -0,7 C 91 % 1001,5 hPa 0,0 l/m 16,7 km/h (3 Bft) S 180 0 min 0 W/m -2,0 C -8,8 C 16,7 km/h (3 Bft)
22.01.2009 09:00 -0,7 C 91 % 1001,5 hPa 0,0 l/m 13,6 km/h (3 Bft) S-SO 165 0 min 0 W/m -2,0 C -6,9 C 13,6 km/h (3 Bft)
22.01.2009 09:04 -0,8 C 91 % 1001,5 hPa 0,0 l/m 17,1 km/h (3 Bft) S 170 0 min 0 W/m -2,1 C -9,2 C 17,1 km/h (3 Bft)
22.01.2009 09:09 -0,7 C 92 % 1000,5 hPa 0,0 l/m 16,3 km/h (3 Bft) S 175 0 min 0 W/m -1,8 C -8,6 C 16,3 km/h (3 Bft)
22.01.2009 09:15 -0,6 C 92 % 1000,5 hPa 0,0 l/m 22,1 km/h (4 Bft) S 170 0 min 0 W/m -1,7 C -11,4 C 22,1 km/h (4 Bft)
22.01.2009 09:20 -0,6 C 92 % 1000,5 hPa 0,0 l/m 15,7 km/h (3 Bft) S 175 0 min 0 W/m -1,7 C -8,1 C 15,7 km/h (3 Bft)
22.01.2009 09:25 -0,6 C 92 % 1000,5 hPa 0,0 l/m 17,7 km/h (3 Bft) S 170 0 min 0 W/m -1,7 C -9,3 C 17,7 km/h (3 Bft)
22.01.2009 09:29 -0,6 C 92 % 1000,5 hPa 0,0 l/m 15,8 km/h (3 Bft) S 175 0 min 0 W/m -1,7 C -8,2 C 15,8 km/h (3 Bft)
22.01.2009 09:34 -0,5 C 92 % 1000,5 hPa 0,0 l/m 15,7 km/h (3 Bft) S 180 0 min 0 W/m -1,6 C -8,0 C 15,7 km/h (3 Bft)
22.01.2009 09:39 -0,5 C 92 % 1000,5 hPa 0,0 l/m 16,6 km/h (3 Bft) S 170 0 min 0 W/m -1,6 C -8,5 C 16,6 km/h (3 Bft)
22.01.2009 09:44 -0,4 C 92 % 1000,5 hPa 0,0 l/m 14,2 km/h (3 Bft) S 170 0 min 0 W/m -1,5 C -7,0 C 14,2 km/h (3 Bft)
22.01.2009 09:49 -0,3 C 92 % 1000,5 hPa 0,0 l/m 18,0 km/h (3 Bft) S 170 0 min 0 W/m -1,4 C -9,0 C 18,0 km/h (3 Bft)
22.01.2009 09:55 -0,3 C 92 % 1000,5 hPa 0,0 l/m 15,8 km/h (3 Bft) S-SO 165 0 min 0 W/m -1,4 C -7,8 C 15,8 km/h (3 Bft)
22.01.2009 10:00 -0,2 C 92 % 999,5 hPa 0,0 l/m 18,6 km/h (3 Bft) S 185 0 min 0 W/m -1,3 C -9,2 C 18,6 km/h (3 Bft)
22.01.2009 10:04 0,0 C 91 % 999,5 hPa 0,0 l/m 18,6 km/h (3 Bft) S 170 0 min 0 W/m -1,3 C -9,0 C 18,6 km/h (3 Bft)
22.01.2009 10:09 0,1 C 91 % 999,5 hPa 0,0 l/m 21,2 km/h (4 Bft) S 170 0 min 0 W/m -1,2 C -10,0 C 21,2 km/h (4 Bft)
22.01.2009 10:14 0,2 C 91 % 999,5 hPa 0,0 l/m 15,3 km/h (3 Bft) S 170 0 min 0 W/m -1,1 C -6,9 C 15,3 km/h (3 Bft)
22.01.2009 10:20 0,3 C 91 % 999,5 hPa 0,0 l/m 12,3 km/h (2 Bft) S 185 0 min 0 W/m -1,0 C -4,9 C 12,3 km/h (2 Bft)
22.01.2009 10:25 0,3 C 91 % 999,5 hPa 0,0 l/m 17,6 km/h (3 Bft) S 170 0 min 0 W/m -1,0 C -8,1 C 17,6 km/h (3 Bft)
22.01.2009 10:29 0,6 C 91 % 999,5 hPa 0,0 l/m 16,1 km/h (3 Bft) S 170 0 min 0 W/m -0,7 C -6,9 C 16,1 km/h (3 Bft)
22.01.2009 10:34 0,9 C 90 % 999,5 hPa 0,0 l/m 12,6 km/h (3 Bft) S 175 0 min 0 W/m -0,6 C -4,4 C 12,6 km/h (3 Bft)
22.01.2009 10:39 1,2 C 90 % 999,5 hPa 0,0 l/m 20,6 km/h (4 Bft) S 180 0 min 0 W/m -0,3 C -8,3 C 20,6 km/h (4 Bft)
22.01.2009 10:44 1,4 C 89 % 999,5 hPa 0,0 l/m 22,5 km/h (4 Bft) S 175 0 min 0 W/m -0,2 C -8,9 C 22,5 km/h (4 Bft)
22.01.2009 10:49 1,7 C 87 % 999,5 hPa 0,0 l/m 27,5 km/h (5 Bft) S 180 0 min 0 W/m -0,2 C -10,3 C 27,5 km/h (5 Bft)
22.01.2009 10:55 1,8 C 86 % 999,5 hPa 0,0 l/m 19,3 km/h (3 Bft) S 180 0 min 0 W/m -0,3 C -7,0 C 19,3 km/h (3 Bft)
22.01.2009 11:00 1,8 C 86 % 999,5 hPa 0,0 l/m 20,3 km/h (4 Bft) S 185 0 min 0 W/m -0,3 C -7,4 C 20,3 km/h (4 Bft)
22.01.2009 11:04 1,9 C 85 % 999,5 hPa 0,0 l/m 21,2 km/h (4 Bft) S 175 0 min 0 W/m -0,3 C -7,7 C 21,2 km/h (4 Bft)
22.01.2009 11:09 1,9 C 85 % 998,5 hPa 0,0 l/m 18,1 km/h (3 Bft) S 170 0 min 0 W/m -0,3 C -6,3 C 18,1 km/h (3 Bft)
22.01.2009 11:14 2,0 C 84 % 998,5 hPa 0,0 l/m 18,8 km/h (3 Bft) S 170 0 min 0 W/m -0,4 C -6,5 C 18,8 km/h (3 Bft)
22.01.2009 11:20 2,1 C 84 % 998,5 hPa 0,0 l/m 17,4 km/h (3 Bft) S 180 0 min 0 W/m -0,3 C -5,7 C 17,4 km/h (3 Bft)
22.01.2009 11:25 2,1 C 83 % 998,5 hPa 0,0 l/m 21,7 km/h (4 Bft) S-SO 165 0 min 0 W/m -0,5 C -7,6 C 21,7 km/h (4 Bft)
22.01.2009 11:29 2,2 C 83 % 998,5 hPa 0,0 l/m 23,8 km/h (4 Bft) S 175 0 min 0 W/m -0,4 C -8,3 C 23,8 km/h (4 Bft)
22.01.2009 11:34 2,2 C 83 % 998,5 hPa 0,0 l/m 24,4 km/h (4 Bft) S 180 0 min 0 W/m -0,4 C -8,5 C 24,4 km/h (4 Bft)
22.01.2009 11:39 2,2 C 83 % 998,5 hPa 0,0 l/m 20,0 km/h (4 Bft) S 180 0 min 0 W/m -0,4 C -6,8 C 20,0 km/h (4 Bft)
22.01.2009 11:44 2,3 C 83 % 998,5 hPa 0,0 l/m 24,3 km/h (4 Bft) S 170 0 min 0 W/m -0,3 C -8,4 C 24,3 km/h (4 Bft)
22.01.2009 11:49 2,3 C 83 % 997,5 hPa 0,0 l/m 21,7 km/h (4 Bft) S 175 0 min 0 W/m -0,3 C -7,4 C 21,7 km/h (4 Bft)
22.01.2009 11:55 2,3 C 83 % 997,5 hPa 0,0 l/m 18,4 km/h (3 Bft) S 175 0 min 0 W/m -0,3 C -5,9 C 18,4 km/h (3 Bft)
22.01.2009 12:00 2,4 C 83 % 997,5 hPa 0,0 l/m 16,3 km/h (3 Bft) S 170 0 min 0 W/m -0,2 C -4,8 C 16,3 km/h (3 Bft)
22.01.2009 12:04 2,4 C 82 % 997,5 hPa 0,0 l/m 21,5 km/h (4 Bft) S-SO 165 0 min 0 W/m -0,4 C -7,2 C 21,5 km/h (4 Bft)
22.01.2009 12:09 2,3 C 82 % 997,5 hPa 0,0 l/m 24,4 km/h (4 Bft) S 175 0 min 0 W/m -0,4 C -8,4 C 24,4 km/h (4 Bft)
22.01.2009 12:14 2,4 C 82 % 997,5 hPa 0,0 l/m 16,8 km/h (3 Bft) S 170 0 min 0 W/m -0,4 C -5,0 C 16,8 km/h (3 Bft)
22.01.2009 12:20 2,4 C 82 % 997,5 hPa 0,0 l/m 19,9 km/h (4 Bft) S 170 0 min 0 W/m -0,4 C -6,5 C 19,9 km/h (4 Bft)
22.01.2009 12:25 2,5 C 82 % 996,5 hPa 0,0 l/m 24,6 km/h (4 Bft) S 180 0 min 0 W/m -0,3 C -8,2 C 24,6 km/h (4 Bft)
22.01.2009 12:29 2,5 C 82 % 996,5 hPa 0,0 l/m 19,5 km/h (3 Bft) S 170 0 min 0 W/m -0,3 C -6,2 C 19,5 km/h (3 Bft)
22.01.2009 12:34 2,6 C 82 % 996,5 hPa 0,0 l/m 23,3 km/h (4 Bft) S 170 0 min 0 W/m -0,2 C -7,6 C 23,3 km/h (4 Bft)
22.01.2009 12:39 2,7 C 82 % 996,5 hPa 0,0 l/m 27,7 km/h (5 Bft) S 180 0 min 0 W/m -0,1 C -8,9 C 27,7 km/h (5 Bft)
22.01.2009 12:44 2,6 C 81 % 996,5 hPa 0,0 l/m 26,7 km/h (4 Bft) S 175 0 min 0 W/m -0,3 C -8,8 C 26,7 km/h (4 Bft)
22.01.2009 12:49 2,7 C 81 % 996,5 hPa 0,0 l/m 21,5 km/h (4 Bft) S 180 0 min 0 W/m -0,2 C -6,8 C 21,5 km/h (4 Bft)
22.01.2009 12:55 2,7 C 81 % 996,5 hPa 0,0 l/m 23,0 km/h (4 Bft) S 175 0 min 0 W/m -0,2 C -7,3 C 23,0 km/h (4 Bft)
22.01.2009 13:00 2,7 C 81 % 996,5 hPa 0,0 l/m 29,1 km/h (5 Bft) S 175 0 min 0 W/m -0,2 C -9,4 C 29,1 km/h (5 Bft)
22.01.2009 13:04 2,7 C 81 % 995,5 hPa 0,0 l/m 22,6 km/h (4 Bft) S 180 0 min 0 W/m -0,2 C -7,2 C 22,6 km/h (4 Bft)
22.01.2009 13:09 2,8 C 81 % 995,5 hPa 0,0 l/m 18,6 km/h (3 Bft) S 180 0 min 0 W/m -0,1 C -5,4 C 18,6 km/h (3 Bft)
22.01.2009 13:15 2,8 C 81 % 995,5 hPa 0,0 l/m 23,8 km/h (4 Bft) S 175 0 min 0 W/m -0,1 C -7,5 C 23,8 km/h (4 Bft)
22.01.2009 13:20 2,9 C 81 % 995,5 hPa 0,0 l/m 23,6 km/h (4 Bft) S 170 0 min 0 W/m -0,0 C -7,3 C 23,6 km/h (4 Bft)
22.01.2009 13:25 2,9 C 81 % 995,5 hPa 0,0 l/m 25,5 km/h (4 Bft) S-SO 165 0 min 0 W/m -0,0 C -8,0 C 25,5 km/h (4 Bft)
22.01.2009 13:29 2,9 C 81 % 995,5 hPa 0,0 l/m 29,3 km/h (5 Bft) S 180 0 min 0 W/m -0,0 C -9,1 C 29,3 km/h (5 Bft)
22.01.2009 13:34 3,0 C 81 % 995,5 hPa 0,0 l/m 20,8 km/h (4 Bft) S 170 0 min 0 W/m 0,1 C -6,1 C 20,8 km/h (4 Bft)
22.01.2009 13:39 3,0 C 81 % 994,5 hPa 0,0 l/m 20,6 km/h (4 Bft) S 175 0 min 0 W/m 0,1 C -6,0 C 20,6 km/h (4 Bft)
22.01.2009 13:44 2,9 C 81 % 994,5 hPa 0,0 l/m 24,5 km/h (4 Bft) S 180 0 min 0 W/m -0,0 C -7,6 C 24,5 km/h (4 Bft)
22.01.2009 13:49 2,9 C 81 % 994,5 hPa 0,0 l/m 26,6 km/h (4 Bft) S 170 0 min 0 W/m -0,0 C -8,3 C 26,6 km/h (4 Bft)
22.01.2009 13:55 3,0 C 81 % 994,5 hPa 0,0 l/m 24,0 km/h (4 Bft) S 170 0 min 0 W/m 0,1 C -7,3 C 24,0 km/h (4 Bft)
22.01.2009 14:00 3,0 C 81 % 994,5 hPa 0,0 l/m 30,8 km/h (5 Bft) S 170 0 min 0 W/m 0,1 C -9,4 C 30,8 km/h (5 Bft)
22.01.2009 14:04 3,0 C 81 % 994,5 hPa 0,0 l/m 25,7 km/h (4 Bft) S 180 0 min 0 W/m 0,1 C -7,9 C 25,7 km/h (4 Bft)
22.01.2009 14:09 3,1 C 80 % 994,5 hPa 0,0 l/m 28,8 km/h (5 Bft) S 170 0 min 0 W/m -0,0 C -8,7 C 28,8 km/h (5 Bft)
22.01.2009 14:15 3,1 C 80 % 994,5 hPa 0,0 l/m 27,8 km/h (5 Bft) S 185 0 min 0 W/m -0,0 C -8,4 C 27,8 km/h (5 Bft)
22.01.2009 14:20 3,1 C 80 % 994,5 hPa 0,0 l/m 20,8 km/h (4 Bft) S 180 0 min 0 W/m -0,0 C -6,0 C 20,8 km/h (4 Bft)
22.01.2009 14:25 3,1 C 80 % 994,5 hPa 0,0 l/m 29,2 km/h (5 Bft) S 170 0 min 0 W/m -0,0 C -8,8 C 29,2 km/h (5 Bft)
22.01.2009 14:29 3,2 C 80 % 994,5 hPa 0,0 l/m 26,2 km/h (4 Bft) S 185 0 min 0 W/m 0,1 C -7,8 C 26,2 km/h (4 Bft)
22.01.2009 14:34 3,2 C 80 % 994,5 hPa 0,0 l/m 28,2 km/h (5 Bft) S 170 0 min 0 W/m 0,1 C -8,4 C 28,2 km/h (5 Bft)
22.01.2009 14:39 3,2 C 80 % 994,5 hPa 0,0 l/m 32,0 km/h (5 Bft) S 170 0 min 0 W/m 0,1 C -9,4 C 32,0 km/h (5 Bft)
22.01.2009 14:44 3,2 C 80 % 994,5 hPa 0,0 l/m 28,2 km/h (5 Bft) S 180 0 min 0 W/m 0,1 C -8,4 C 28,2 km/h (5 Bft)
22.01.2009 14:50 3,2 C 80 % 993,5 hPa 0,0 l/m 24,0 km/h (4 Bft) S 170 0 min 0 W/m 0,1 C -7,0 C 24,0 km/h (4 Bft)
22.01.2009 14:55 3,1 C 81 % 993,5 hPa 0,0 l/m 29,0 km/h (5 Bft) S 175 0 min 0 W/m 0,2 C -8,8 C 29,0 km/h (5 Bft)
22.01.2009 15:00 3,1 C 82 % 993,5 hPa 0,3 l/m 25,1 km/h (4 Bft) S-SO 160 0 min 0 W/m 0,3 C -7,6 C 25,1 km/h (4 Bft)
22.01.2009 15:04 3,1 C 83 % 993,5 hPa 0,0 l/m 26,5 km/h (4 Bft) S 170 0 min 0 W/m 0,5 C -8,0 C 26,5 km/h (4 Bft)
22.01.2009 15:10 2,9 C 83 % 993,5 hPa 0,0 l/m 26,5 km/h (4 Bft) S 170 0 min 0 W/m 0,3 C -8,3 C 26,5 km/h (4 Bft)
22.01.2009 15:15 2,9 C 84 % 993,5 hPa 0,0 l/m 31,7 km/h (5 Bft) S 170 0 min 0 W/m 0,5 C -9,8 C 31,7 km/h (5 Bft)
22.01.2009 15:19 2,9 C 84 % 993,5 hPa 0,0 l/m 23,5 km/h (4 Bft) S 170 0 min 0 W/m 0,5 C -7,3 C 23,5 km/h (4 Bft)
22.01.2009 15:24 2,9 C 85 % 992,5 hPa 0,0 l/m 28,6 km/h (5 Bft) S-SO 165 0 min 0 W/m 0,6 C -8,9 C 28,6 km/h (5 Bft)
22.01.2009 15:29 2,7 C 86 % 992,5 hPa 0,0 l/m 33,2 km/h (5 Bft) S-SO 165 0 min 0 W/m 0,6 C -10,5 C 33,2 km/h (5 Bft)
22.01.2009 15:34 2,7 C 86 % 992,5 hPa 0,0 l/m 28,5 km/h (5 Bft) S 180 0 min 0 W/m 0,6 C -9,2 C 28,5 km/h (5 Bft)
22.01.2009 15:39 2,7 C 87 % 992,5 hPa 0,0 l/m 31,7 km/h (5 Bft) S 170 0 min 0 W/m 0,8 C -10,1 C 31,7 km/h (5 Bft)
22.01.2009 15:45 2,7 C 87 % 992,5 hPa 0,0 l/m 21,6 km/h (4 Bft) S 175 0 min 0 W/m 0,8 C -6,8 C 21,6 km/h (4 Bft)
22.01.2009 15:50 2,8 C 86 % 992,5 hPa 0,0 l/m 24,4 km/h (4 Bft) S 185 0 min 0 W/m 0,7 C -7,7 C 24,4 km/h (4 Bft)
22.01.2009 15:54 2,7 C 86 % 992,5 hPa 0,0 l/m 27,1 km/h (5 Bft) S 170 0 min 0 W/m 0,6 C -8,7 C 27,1 km/h (5 Bft)
22.01.2009 15:59 2,7 C 86 % 992,5 hPa 0,0 l/m 28,1 km/h (5 Bft) S 170 0 min 0 W/m 0,6 C -9,1 C 28,1 km/h (5 Bft)
22.01.2009 16:04 2,9 C 86 % 992,5 hPa 0,0 l/m 31,9 km/h (5 Bft) S-SO 165 0 min 0 W/m 0,8 C -9,8 C 31,9 km/h (5 Bft)
22.01.2009 16:10 2,9 C 85 % 992,5 hPa 0,0 l/m 39,6 km/h (6 Bft) S-SO 165 0 min 0 W/m 0,6 C -11,6 C 39,6 km/h (6 Bft)
22.01.2009 16:14 3,1 C 84 % 991,5 hPa 0,0 l/m 25,9 km/h (4 Bft) S-SO 160 0 min 0 W/m 0,7 C -7,8 C 25,9 km/h (4 Bft)
22.01.2009 16:19 3,1 C 83 % 991,5 hPa 0,0 l/m 29,4 km/h (5 Bft) S-SO 165 0 min 0 W/m 0,5 C -8,9 C 29,4 km/h (5 Bft)
22.01.2009 16:24 3,1 C 83 % 991,5 hPa 0,0 l/m 27,0 km/h (5 Bft) S 175 0 min 0 W/m 0,5 C -8,2 C 27,0 km/h (5 Bft)
22.01.2009 16:29 3,2 C 82 % 991,5 hPa 0,0 l/m 29,1 km/h (5 Bft) S 175 0 min 0 W/m 0,4 C -8,7 C 29,1 km/h (5 Bft)
22.01.2009 16:34 3,3 C 82 % 991,5 hPa 0,0 l/m 28,2 km/h (5 Bft) S 175 0 min 0 W/m 0,5 C -8,3 C 28,2 km/h (5 Bft)
22.01.2009 16:40 3,4 C 81 % 991,5 hPa 0,0 l/m 20,3 km/h (4 Bft) S 170 0 min 0 W/m 0,5 C -5,4 C 20,3 km/h (4 Bft)
22.01.2009 16:45 3,4 C 80 % 991,5 hPa 0,0 l/m 22,5 km/h (4 Bft) S-SO 165 0 min 0 W/m 0,3 C -6,2 C 22,5 km/h (4 Bft)
22.01.2009 16:49 3,4 C 79 % 990,5 hPa 0,0 l/m 28,1 km/h (5 Bft) S 175 0 min 0 W/m 0,1 C -8,1 C 28,1 km/h (5 Bft)
22.01.2009 16:54 3,5 C 79 % 990,5 hPa 0,0 l/m 34,1 km/h (5 Bft) S 190 0 min 0 W/m 0,2 C -9,5 C 34,1 km/h (5 Bft)
22.01.2009 16:59 3,5 C 79 % 990,5 hPa 0,0 l/m 35,0 km/h (5 Bft) S 175 0 min 0 W/m 0,2 C -9,7 C 35,0 km/h (5 Bft)
22.01.2009 17:04 3,6 C 78 % 990,5 hPa 0,0 l/m 34,9 km/h (5 Bft) S 170 0 min 0 W/m 0,1 C -9,6 C 34,9 km/h (5 Bft)
22.01.2009 17:09 3,7 C 78 % 990,5 hPa 0,0 l/m 25,7 km/h (4 Bft) S 175 0 min 0 W/m 0,2 C -6,9 C 25,7 km/h (4 Bft)
22.01.2009 17:14 3,7 C 78 % 990,5 hPa 0,0 l/m 22,1 km/h (4 Bft) S 170 0 min 0 W/m 0,2 C -5,7 C 22,1 km/h (4 Bft)
22.01.2009 17:19 3,7 C 79 % 990,5 hPa 0,0 l/m 25,5 km/h (4 Bft) S 170 0 min 0 W/m 0,4 C -6,9 C 25,5 km/h (4 Bft)
22.01.2009 17:24 3,6 C 79 % 990,5 hPa 0,0 l/m 29,3 km/h (5 Bft) S 170 0 min 0 W/m 0,3 C -8,2 C 29,3 km/h (5 Bft)
22.01.2009 17:30 3,7 C 79 % 990,5 hPa 0,0 l/m 26,5 km/h (4 Bft) S 170 0 min 0 W/m 0,4 C -7,2 C 26,5 km/h (4 Bft)
22.01.2009 17:35 3,6 C 79 % 990,5 hPa 0,0 l/m 28,0 km/h (5 Bft) S 175 0 min 0 W/m 0,3 C -7,8 C 28,0 km/h (5 Bft)
22.01.2009 17:40 3,7 C 79 % 990,5 hPa 0,0 l/m 30,7 km/h (5 Bft) S 170 0 min 0 W/m 0,4 C -8,4 C 30,7 km/h (5 Bft)
22.01.2009 17:44 3,7 C 79 % 990,5 hPa 0,0 l/m 25,5 km/h (4 Bft) S 170 0 min 0 W/m 0,4 C -6,9 C 25,5 km/h (4 Bft)
22.01.2009 17:49 3,7 C 79 % 990,5 hPa 0,0 l/m 24,0 km/h (4 Bft) S 185 0 min 0 W/m 0,4 C -6,4 C 24,0 km/h (4 Bft)
22.01.2009 17:54 3,6 C 79 % 990,5 hPa 0,0 l/m 23,9 km/h (4 Bft) S 175 0 min 0 W/m 0,3 C -6,5 C 23,9 km/h (4 Bft)
22.01.2009 17:59 3,5 C 80 % 989,5 hPa 0,0 l/m 20,8 km/h (4 Bft) S 180 0 min 0 W/m 0,4 C -5,4 C 20,8 km/h (4 Bft)
22.01.2009 18:05 3,5 C 80 % 989,5 hPa 0,3 l/m 25,5 km/h (4 Bft) S 170 0 min 0 W/m 0,4 C -7,1 C 25,5 km/h (4 Bft)
22.01.2009 18:10 3,5 C 80 % 989,5 hPa 0,0 l/m 27,6 km/h (5 Bft) S-SO 160 0 min 0 W/m 0,4 C -7,8 C 27,6 km/h (5 Bft)
22.01.2009 18:14 3,5 C 80 % 989,5 hPa 0,0 l/m 30,1 km/h (5 Bft) S 170 0 min 0 W/m 0,4 C -8,5 C 30,1 km/h (5 Bft)
22.01.2009 18:19 3,6 C 79 % 989,5 hPa 0,0 l/m 29,0 km/h (5 Bft) S 170 0 min 0 W/m 0,3 C -8,1 C 29,0 km/h (5 Bft)
22.01.2009 18:24 3,6 C 80 % 989,5 hPa 0,0 l/m 32,1 km/h (5 Bft) S 175 0 min 0 W/m 0,5 C -8,9 C 32,1 km/h (5 Bft)
22.01.2009 18:29 3,5 C 79 % 989,5 hPa 0,0 l/m 31,5 km/h (5 Bft) S 180 0 min 0 W/m 0,2 C -8,9 C 31,5 km/h (5 Bft)
22.01.2009 18:34 3,6 C 79 % 989,5 hPa 0,0 l/m 32,8 km/h (5 Bft) S 170 0 min 0 W/m 0,3 C -9,1 C 32,8 km/h (5 Bft)
22.01.2009 18:35 3,6 C 79 % 989,5 hPa 0,0 l/m 32,8 km/h (5 Bft) S 170 0 min 0 W/m 0,3 C -9,1 C 32,8 km/h (5 Bft)
22.01.2009 18:40 3,6 C 79 % 989,5 hPa 0,0 l/m 28,8 km/h (5 Bft) S-SO 165 0 min 0 W/m 0,3 C -8,0 C 28,8 km/h (5 Bft)
22.01.2009 18:45 3,6 C 79 % 989,5 hPa 0,0 l/m 24,0 km/h (4 Bft) S 180 0 min 0 W/m 0,3 C -6,5 C 24,0 km/h (4 Bft)
22.01.2009 18:49 3,7 C 79 % 989,5 hPa 0,0 l/m 22,0 km/h (4 Bft) S 180 0 min 0 W/m 0,4 C -5,6 C 22,0 km/h (4 Bft)
22.01.2009 18:54 3,7 C 79 % 989,5 hPa 0,0 l/m 24,8 km/h (4 Bft) S 180 0 min 0 W/m 0,4 C -6,6 C 24,8 km/h (4 Bft)
22.01.2009 19:00 3,7 C 79 % 989,5 hPa 0,0 l/m 35,8 km/h (5 Bft) S 175 0 min 0 W/m 0,4 C -9,6 C 35,8 km/h (5 Bft)
22.01.2009 19:05 3,7 C 79 % 989,5 hPa 0,0 l/m 28,6 km/h (5 Bft) S 175 0 min 0 W/m 0,4 C -7,8 C 28,6 km/h (5 Bft)
22.01.2009 19:10 3,7 C 79 % 989,5 hPa 0,0 l/m 24,9 km/h (4 Bft) S 190 0 min 0 W/m 0,4 C -6,7 C 24,9 km/h (4 Bft)
22.01.2009 19:14 3,7 C 79 % 988,5 hPa 0,0 l/m 38,8 km/h (6 Bft) S 170 0 min 0 W/m 0,4 C -10,2 C 38,8 km/h (6 Bft)
22.01.2009 19:15 3,7 C 79 % 988,5 hPa 0,0 l/m 38,8 km/h (6 Bft) S 170 0 min 0 W/m 0,4 C -10,2 C 38,8 km/h (6 Bft)
22.01.2009 19:19 3,7 C 79 % 988,5 hPa 0,0 l/m 22,0 km/h (4 Bft) S 180 0 min 0 W/m 0,4 C -5,6 C 22,0 km/h (4 Bft)
22.01.2009 19:20 3,7 C 79 % 988,5 hPa 0,0 l/m 22,0 km/h (4 Bft) S 180 0 min 0 W/m 0,4 C -5,6 C 22,0 km/h (4 Bft)
22.01.2009 19:24 3,7 C 79 % 988,5 hPa 0,0 l/m 31,5 km/h (5 Bft) S 180 0 min 0 W/m 0,4 C -8,6 C 31,5 km/h (5 Bft)
22.01.2009 19:29 3,7 C 79 % 988,5 hPa 0,0 l/m 31,5 km/h (5 Bft) S 185 0 min 0 W/m 0,4 C -8,6 C 31,5 km/h (5 Bft)
22.01.2009 19:34 3,7 C 80 % 988,5 hPa 0,0 l/m 31,2 km/h (5 Bft) S 170 0 min 0 W/m 0,6 C -8,5 C 31,2 km/h (5 Bft)
22.01.2009 19:39 3,5 C 82 % 988,5 hPa 0,0 l/m 32,3 km/h (5 Bft) S 185 0 min 0 W/m 0,7 C -9,1 C 32,3 km/h (5 Bft)
22.01.2009 19:44 3,5 C 82 % 988,5 hPa 0,0 l/m 31,4 km/h (5 Bft) S-SW 195 0 min 0 W/m 0,7 C -8,9 C 31,4 km/h (5 Bft)
22.01.2009 19:49 3,5 C 83 % 988,5 hPa 0,0 l/m 33,3 km/h (5 Bft) S 190 0 min 0 W/m 0,9 C -9,3 C 33,3 km/h (5 Bft)
22.01.2009 19:54 3,4 C 84 % 988,5 hPa 0,3 l/m 35,7 km/h (5 Bft) S-SW 205 0 min 0 W/m 1,0 C -10,0 C 35,7 km/h (5 Bft)
22.01.2009 19:59 3,3 C 85 % 988,5 hPa 0,0 l/m 31,7 km/h (5 Bft) S-SW 195 0 min 0 W/m 1,0 C -9,2 C 31,7 km/h (5 Bft)
22.01.2009 20:05 3,2 C 86 % 988,5 hPa 0,0 l/m 38,2 km/h (6 Bft) S 180 0 min 0 W/m 1,1 C -10,8 C 38,2 km/h (6 Bft)
22.01.2009 20:09 3,1 C 86 % 988,5 hPa 0,0 l/m 27,6 km/h (5 Bft) S 190 0 min 0 W/m 1,0 C -8,4 C 27,6 km/h (5 Bft)
22.01.2009 20:14 3,1 C 87 % 988,5 hPa 0,3 l/m 27,5 km/h (5 Bft) S 185 0 min 0 W/m 1,2 C -8,3 C 27,5 km/h (5 Bft)
22.01.2009 20:19 2,9 C 88 % 988,5 hPa 0,0 l/m 31,7 km/h (5 Bft) S-SW 195 0 min 0 W/m 1,1 C -9,8 C 31,7 km/h (5 Bft)
22.01.2009 20:25 2,8 C 89 % 988,5 hPa 0,0 l/m 25,3 km/h (4 Bft) S 185 0 min 0 W/m 1,2 C -8,0 C 25,3 km/h (4 Bft)
22.01.2009 20:30 2,7 C 89 % 988,5 hPa 0,0 l/m 27,3 km/h (5 Bft) S-SW 200 0 min 0 W/m 1,1 C -8,8 C 27,3 km/h (5 Bft)
22.01.2009 20:34 2,7 C 90 % 988,5 hPa 0,0 l/m 32,0 km/h (5 Bft) S 190 0 min 0 W/m 1,2 C -10,1 C 32,0 km/h (5 Bft)
22.01.2009 20:39 2,7 C 90 % 988,5 hPa 0,0 l/m 21,1 km/h (4 Bft) S 185 0 min 0 W/m 1,2 C -6,6 C 21,1 km/h (4 Bft)
22.01.2009 20:44 2,7 C 90 % 988,5 hPa 0,0 l/m 24,0 km/h (4 Bft) S 180 0 min 0 W/m 1,2 C -7,7 C 24,0 km/h (4 Bft)
22.01.2009 20:49 2,7 C 90 % 988,5 hPa 0,0 l/m 26,8 km/h (4 Bft) S 180 0 min 0 W/m 1,2 C -8,7 C 26,8 km/h (4 Bft)
22.01.2009 20:55 2,7 C 90 % 988,5 hPa 0,0 l/m 23,9 km/h (4 Bft) S 175 0 min 0 W/m 1,2 C -7,7 C 23,9 km/h (4 Bft)
22.01.2009 21:00 2,7 C 90 % 988,5 hPa 0,0 l/m 22,5 km/h (4 Bft) S 185 0 min 0 W/m 1,2 C -7,2 C 22,5 km/h (4 Bft)
22.01.2009 21:04 2,7 C 90 % 988,5 hPa 0,0 l/m 24,3 km/h (4 Bft) S 185 0 min 0 W/m 1,2 C -7,8 C 24,3 km/h (4 Bft)
22.01.2009 21:09 2,7 C 91 % 988,5 hPa 0,0 l/m 28,9 km/h (5 Bft) S 180 0 min 0 W/m 1,4 C -9,3 C 28,9 km/h (5 Bft)
22.01.2009 21:15 2,6 C 91 % 988,5 hPa 0,3 l/m 29,8 km/h (5 Bft) S 185 0 min 0 W/m 1,3 C -9,7 C 29,8 km/h (5 Bft)
22.01.2009 21:20 2,5 C 91 % 988,5 hPa 0,0 l/m 28,0 km/h (5 Bft) S 190 0 min 0 W/m 1,2 C -9,3 C 28,0 km/h (5 Bft)
22.01.2009 21:24 2,4 C 92 % 988,5 hPa 0,0 l/m 26,5 km/h (4 Bft) S 185 0 min 0 W/m 1,2 C -9,0 C 26,5 km/h (4 Bft)
22.01.2009 21:29 2,3 C 92 % 988,5 hPa 0,0 l/m 24,0 km/h (4 Bft) S 185 0 min 0 W/m 1,1 C -8,2 C 24,0 km/h (4 Bft)
22.01.2009 21:34 2,3 C 92 % 988,5 hPa 0,0 l/m 22,1 km/h (4 Bft) S 185 0 min 0 W/m 1,1 C -7,5 C 22,1 km/h (4 Bft)
22.01.2009 21:39 2,3 C 93 % 988,5 hPa 0,0 l/m 20,6 km/h (4 Bft) S 180 0 min 0 W/m 1,3 C -6,9 C 20,6 km/h (4 Bft)
22.01.2009 21:44 2,3 C 93 % 987,5 hPa 0,0 l/m 21,6 km/h (4 Bft) S 190 0 min 0 W/m 1,3 C -7,3 C 21,6 km/h (4 Bft)
22.01.2009 21:50 2,3 C 93 % 987,5 hPa 0,0 l/m 23,3 km/h (4 Bft) S 185 0 min 0 W/m 1,3 C -8,0 C 23,3 km/h (4 Bft)
22.01.2009 21:55 2,3 C 93 % 987,5 hPa 0,0 l/m 23,0 km/h (4 Bft) S 185 0 min 0 W/m 1,3 C -7,9 C 23,0 km/h (4 Bft)
22.01.2009 21:59 2,3 C 94 % 987,5 hPa 0,0 l/m 20,5 km/h (4 Bft) S 170 0 min 0 W/m 1,4 C -6,9 C 20,5 km/h (4 Bft)
22.01.2009 22:05 2,4 C 94 % 987,5 hPa 0,0 l/m 24,8 km/h (4 Bft) S 170 0 min 0 W/m 1,5 C -8,4 C 24,8 km/h (4 Bft)
22.01.2009 22:10 2,5 C 94 % 987,5 hPa 0,0 l/m 23,4 km/h (4 Bft) S 185 0 min 0 W/m 1,6 C -7,8 C 23,4 km/h (4 Bft)
22.01.2009 22:14 2,6 C 94 % 987,5 hPa 0,0 l/m 23,1 km/h (4 Bft) S 180 0 min 0 W/m 1,7 C -7,5 C 23,1 km/h (4 Bft)
22.01.2009 22:19 2,6 C 94 % 987,5 hPa 0,0 l/m 18,1 km/h (3 Bft) S 175 0 min 0 W/m 1,7 C -5,4 C 18,1 km/h (3 Bft)
22.01.2009 22:24 2,7 C 94 % 987,5 hPa 0,0 l/m 27,3 km/h (5 Bft) S 190 0 min 0 W/m 1,8 C -8,8 C 27,3 km/h (5 Bft)
22.01.2009 22:29 2,7 C 94 % 987,5 hPa 0,0 l/m 24,1 km/h (4 Bft) S 185 0 min 0 W/m 1,8 C -7,7 C 24,1 km/h (4 Bft)
22.01.2009 22:35 2,7 C 94 % 987,5 hPa 0,0 l/m 25,2 km/h (4 Bft) S 185 0 min 0 W/m 1,8 C -8,1 C 25,2 km/h (4 Bft)
22.01.2009 22:40 2,8 C 94 % 987,5 hPa 0,0 l/m 26,3 km/h (4 Bft) S 175 0 min 0 W/m 1,9 C -8,4 C 26,3 km/h (4 Bft)
22.01.2009 22:44 2,9 C 95 % 987,5 hPa 0,0 l/m 26,6 km/h (4 Bft) S-SW 195 0 min 0 W/m 2,2 C -8,3 C 26,6 km/h (4 Bft)
22.01.2009 22:49 2,9 C 95 % 987,5 hPa 0,0 l/m 25,9 km/h (4 Bft) S 190 0 min 0 W/m 2,2 C -8,1 C 25,9 km/h (4 Bft)
22.01.2009 22:54 2,9 C 95 % 987,5 hPa 0,0 l/m 23,9 km/h (4 Bft) S 185 0 min 0 W/m 2,2 C -7,4 C 23,9 km/h (4 Bft)
22.01.2009 22:59 2,9 C 95 % 987,5 hPa 0,0 l/m 23,0 km/h (4 Bft) S 185 0 min 0 W/m 2,2 C -7,1 C 23,0 km/h (4 Bft)
22.01.2009 23:05 3,0 C 95 % 987,5 hPa 0,0 l/m 29,3 km/h (5 Bft) S 190 0 min 0 W/m 2,3 C -9,0 C 29,3 km/h (5 Bft)
22.01.2009 23:09 3,1 C 95 % 986,5 hPa 0,0 l/m 22,8 km/h (4 Bft) S-SW 195 0 min 0 W/m 2,4 C -6,7 C 22,8 km/h (4 Bft)
22.01.2009 23:14 3,1 C 94 % 986,5 hPa 0,0 l/m 27,6 km/h (5 Bft) S 185 0 min 0 W/m 2,2 C -8,4 C 27,6 km/h (5 Bft)
22.01.2009 23:19 3,1 C 94 % 986,5 hPa 0,0 l/m 30,1 km/h (5 Bft) S 185 0 min 0 W/m 2,2 C -9,1 C 30,1 km/h (5 Bft)
22.01.2009 23:25 3,1 C 94 % 986,5 hPa 0,0 l/m 24,3 km/h (4 Bft) S 190 0 min 0 W/m 2,2 C -7,3 C 24,3 km/h (4 Bft)
22.01.2009 23:30 3,1 C 94 % 986,5 hPa 0,3 l/m 24,1 km/h (4 Bft) S 190 0 min 0 W/m 2,2 C -7,2 C 24,1 km/h (4 Bft)
22.01.2009 23:34 3,1 C 94 % 986,5 hPa 0,0 l/m 27,0 km/h (5 Bft) S 190 0 min 0 W/m 2,2 C -8,2 C 27,0 km/h (5 Bft)
22.01.2009 23:39 3,2 C 94 % 986,5 hPa 0,0 l/m 26,0 km/h (4 Bft) S 190 0 min 0 W/m 2,3 C -7,7 C 26,0 km/h (4 Bft)
22.01.2009 23:44 3,2 C 95 % 986,5 hPa 0,3 l/m 29,5 km/h (5 Bft) S 190 0 min 0 W/m 2,5 C -8,8 C 29,5 km/h (5 Bft)
22.01.2009 23:49 3,2 C 95 % 986,5 hPa 0,0 l/m 21,7 km/h (4 Bft) S-SW 195 0 min 0 W/m 2,5 C -6,2 C 21,7 km/h (4 Bft)
22.01.2009 23:55 3,2 C 95 % 986,5 hPa 0,0 l/m 25,5 km/h (4 Bft) S-SW 205 0 min 0 W/m 2,5 C -7,5 C 25,5 km/h (4 Bft)
_ Min-Zeit 08:44 17:04 23:09 - 03:49 - - - - 08:20 16:10 03:49
Minimum _ -0,8 C 78 % 986,5 hPa - 4,5 km/h (1 Bft) - - - - -2,3 C -11,6 C 4,5 km/h (1 Bft)
_ Max-Zeit 05:19 22:44 00:05 15:00 16:10 - - 00:05 00:05 23:44 03:49 16:10
Maximum _ 4,0 C 95 % 1005,5 hPa 0,3 l/m 39,6 km/h
S-SO (6 Bft)
- - 0 min 0 W/m 2,5 C 2,2 C 39,6 km/h
S-SO (6 Bft)
Durchschnitt _ 2,4 C 87 % 996,8 hPa #2,1 l/m 20,2 km/h (4 Bft) S - #0 min. 0 W/m 0,4 C -5,9 C 20,2 km/h (4 Bft)
copyright by Holger Just